Terminal Aerodrome Forecast
Issued by NWS Sioux Falls, SD

Home | Current Version | Previous Version | Text Only | Print | Product List | Glossary Off
Versions: 1 2 3 4 5 6 7 8 9 10 11 12 13 14 15

000
FTUS43 KFSD 130520
TAFHON
TAF
KHON 130520Z 1306/1406 17007KT P6SM SKC
     FM131400 18013G18KT P6SM FEW250
     FM131700 19018G28KT P6SM FEW250
     FM132200 19014G22KT P6SM FEW250
     FM140000 18007KT P6SM FEW250=

USA.gov is the U.S. government's official web portal to all federal, state and local government web resources and services.